Kingsley Lake, Florida
Current Conditions -  °F | °C
As of 11:35 AM on Friday 19 Dec 2014 (Local Time) from K42J Reporting Station
Clear Clear  
Wind Chill: 64°   Ceiling: Unl
Heat Index: 64°   Visibility: 10mi
Dew Point: 30°   Wind: 6mph
Humidity: 28%   Direction: 100°E
Pressure: 30.14"   Gusts: NA
Location:  29.9637°N, 82.0893°W
Report Text: K42J 191635Z AUTO 10005KT 10SM CLR 18/M01 A3014 RMK AO1 TSNO
Loading
Personal Weather Stations






























Interactive Weather Map New forecast layout! Learn more

10-Day Weather Forecast

Advertisements
Track Severe Weather on mobile